createdAt,value
2023-01-29T00:01:26.287Z,97489.63
2023-01-29T00:03:52.548Z,97489.63
2023-01-29T00:06:18.830Z,97485.41
2023-01-29T00:08:45.105Z,97479.53
2023-01-29T00:11:11.403Z,97481.69
2023-01-29T00:13:37.683Z,97482.31
2023-01-29T00:16:03.944Z,97492.59
2023-01-29T00:18:30.205Z,97485.22
2023-01-29T00:20:56.486Z,97483.31
2023-01-29T00:23:22.747Z,97473.97
2023-01-29T00:25:49.018Z,97482.66
2023-01-29T00:28:15.282Z,97482.59
2023-01-29T00:30:41.555Z,97482.00
2023-01-29T00:33:07.817Z,97469.47
2023-01-29T00:35:34.091Z,97475.25
2023-01-29T00:38:00.452Z,97478.97
2023-01-29T00:40:26.728Z,97475.56
2023-01-29T00:42:52.999Z,97473.09
2023-01-29T00:45:19.253Z,97470.00
2023-01-29T00:47:45.541Z,97479.38
2023-01-29T00:50:11.856Z,97479.19
2023-01-29T00:52:38.149Z,97478.50
2023-01-29T00:55:04.402Z,97476.34
2023-01-29T00:57:30.720Z,97477.00
2023-01-29T00:59:56.996Z,97483.78
2023-01-29T01:02:23.319Z,97481.47
2023-01-29T01:04:49.606Z,97484.28
2023-01-29T01:07:15.875Z,97485.34
2023-01-29T01:09:42.164Z,97482.75
2023-01-29T01:12:08.436Z,97483.34
2023-01-29T01:14:34.715Z,97492.78
2023-01-29T01:17:01.003Z,97487.50
2023-01-29T01:19:27.277Z,97490.56
2023-01-29T01:21:53.543Z,97495.28
2023-01-29T01:24:19.844Z,97503.22
2023-01-29T01:26:46.124Z,97493.66
2023-01-29T01:29:12.385Z,97508.56
2023-01-29T01:31:38.709Z,97508.56
2023-01-29T01:34:04.972Z,97507.28
2023-01-29T01:36:31.255Z,97509.94
2023-01-29T01:38:57.537Z,97523.06
2023-01-29T01:41:23.840Z,97514.81
2023-01-29T01:43:50.119Z,97511.94
2023-01-29T01:46:16.380Z,97520.91
2023-01-29T01:48:42.648Z,97522.91
2023-01-29T01:51:08.901Z,97520.19
2023-01-29T01:53:35.161Z,97529.50
2023-01-29T01:56:01.440Z,97528.31
2023-01-29T01:58:27.733Z,97531.25
2023-01-29T02:00:54.012Z,97534.59
2023-01-29T02:03:20.305Z,97532.00
2023-01-29T02:05:46.576Z,97534.03
2023-01-29T02:08:12.840Z,97535.88
2023-01-29T02:10:39.111Z,97541.50
2023-01-29T02:13:05.359Z,97545.91
2023-01-29T02:15:31.613Z,97557.31
2023-01-29T02:17:57.866Z,97565.34
2023-01-29T02:20:24.164Z,97548.72
2023-01-29T02:22:50.445Z,97552.78
2023-01-29T02:25:16.705Z,97566.06
2023-01-29T02:27:43.068Z,97564.72
2023-01-29T02:30:09.380Z,97572.34
2023-01-29T02:32:35.628Z,97567.84
2023-01-29T02:35:01.936Z,97588.28
2023-01-29T02:37:28.223Z,97590.41
2023-01-29T02:39:54.484Z,97582.00
2023-01-29T02:42:20.760Z,97588.56
2023-01-29T02:44:47.018Z,97592.88
2023-01-29T02:47:13.289Z,97603.53
2023-01-29T02:49:39.554Z,97592.66
2023-01-29T02:52:05.814Z,97600.22
2023-01-29T02:54:32.074Z,97600.78
2023-01-29T02:56:58.324Z,97606.44
2023-01-29T02:59:24.576Z,97600.03
2023-01-29T03:01:50.843Z,97597.19
2023-01-29T03:04:17.176Z,97600.13
2023-01-29T03:06:43.422Z,97604.19
2023-01-29T03:09:09.683Z,97603.59
2023-01-29T03:11:35.959Z,97605.88
2023-01-29T03:14:02.243Z,97607.75
2023-01-29T03:16:28.563Z,97615.59
2023-01-29T03:18:54.845Z,97606.63
2023-01-29T03:21:21.129Z,97599.03
2023-01-29T03:23:47.419Z,97597.16
2023-01-29T03:26:13.666Z,97594.06
2023-01-29T03:28:39.929Z,97596.94
2023-01-29T03:31:06.225Z,97599.63
2023-01-29T03:33:32.527Z,97607.34
2023-01-29T03:35:58.801Z,97606.00
2023-01-29T03:38:25.079Z,97602.13
2023-01-29T03:40:51.350Z,97597.59
2023-01-29T03:43:17.638Z,97606.91
2023-01-29T03:45:43.923Z,97609.81
2023-01-29T03:48:10.223Z,97602.66
2023-01-29T03:50:36.477Z,97596.72
2023-01-29T03:53:02.833Z,97599.13
2023-01-29T03:55:29.090Z,97601.91
2023-01-29T03:57:55.361Z,97600.84
2023-01-29T04:00:21.709Z,97599.31
2023-01-29T04:02:47.960Z,97601.59
2023-01-29T04:05:14.228Z,97591.44
2023-01-29T04:07:40.510Z,97594.31
2023-01-29T04:10:06.787Z,97590.34
2023-01-29T04:12:33.052Z,97588.22
2023-01-29T04:14:59.309Z,97593.28
2023-01-29T04:17:25.591Z,97594.09
2023-01-29T04:19:51.860Z,97592.34
2023-01-29T04:22:18.128Z,97589.63
2023-01-29T04:24:44.379Z,97586.25
2023-01-29T04:27:10.656Z,97594.31
2023-01-29T04:29:36.906Z,97588.06
2023-01-29T04:32:03.187Z,97594.22
2023-01-29T04:34:29.454Z,97590.53
2023-01-29T04:36:55.731Z,97597.25
2023-01-29T04:39:21.985Z,97584.00
2023-01-29T04:41:48.259Z,97586.28
2023-01-29T04:44:14.525Z,97591.50
2023-01-29T04:46:40.794Z,97588.47
2023-01-29T04:49:07.048Z,97590.56
2023-01-29T04:51:33.312Z,97587.66
2023-01-29T04:53:59.574Z,97591.88
2023-01-29T04:56:25.824Z,97599.66
2023-01-29T04:58:52.085Z,97588.53
2023-01-29T05:01:18.389Z,97587.63
2023-01-29T05:03:44.695Z,97592.97
2023-01-29T05:06:10.971Z,97592.03
2023-01-29T05:08:37.239Z,97583.28
2023-01-29T05:11:03.497Z,97593.16
2023-01-29T05:13:29.779Z,97596.91
2023-01-29T05:15:56.094Z,97597.03
2023-01-29T05:18:22.404Z,97602.53
2023-01-29T05:20:48.663Z,97592.69
2023-01-29T05:23:14.933Z,97599.56
2023-01-29T05:25:41.194Z,97603.47
2023-01-29T05:28:07.451Z,97603.06
2023-01-29T05:30:33.711Z,97601.91
2023-01-29T05:33:00.022Z,97609.09
2023-01-29T05:35:26.443Z,97611.03
2023-01-29T05:37:52.723Z,97619.13
2023-01-29T05:40:19.182Z,97627.88
2023-01-29T05:42:45.553Z,97631.63
2023-01-29T05:45:11.828Z,97635.56
2023-01-29T05:47:38.100Z,97639.44
2023-01-29T05:50:04.365Z,97640.72
2023-01-29T05:52:30.637Z,97647.28
2023-01-29T05:54:56.900Z,97648.22
2023-01-29T05:57:23.176Z,97659.25
2023-01-29T05:59:49.453Z,97660.56
2023-01-29T06:02:15.731Z,97664.00
2023-01-29T06:04:42.013Z,97667.38
2023-01-29T06:07:08.304Z,97674.34
2023-01-29T06:09:34.567Z,97671.75
2023-01-29T06:12:00.843Z,97677.91
2023-01-29T06:14:27.096Z,97683.66
2023-01-29T06:16:53.374Z,97684.38
2023-01-29T06:19:19.665Z,97691.59
2023-01-29T06:21:45.912Z,97689.53
2023-01-29T06:24:12.224Z,97691.53
2023-01-29T06:26:38.501Z,97689.13
2023-01-29T06:29:04.780Z,97698.13
2023-01-29T06:31:38.739Z,97699.16
2023-01-29T06:34:05.692Z,97701.06
2023-01-29T06:36:31.956Z,97716.81
2023-01-29T06:38:58.213Z,97716.78
2023-01-29T06:41:24.482Z,97725.03
2023-01-29T06:43:50.746Z,97730.78
2023-01-29T06:46:17.005Z,97736.41
2023-01-29T06:48:43.255Z,97731.09
2023-01-29T06:51:09.500Z,97731.19
2023-01-29T06:53:35.766Z,97734.25
2023-01-29T06:56:02.051Z,97732.09
2023-01-29T06:58:28.345Z,97730.09
2023-01-29T07:00:54.716Z,97729.91
2023-01-29T07:03:21.020Z,97740.41
2023-01-29T07:05:47.299Z,97736.13
2023-01-29T07:08:13.562Z,97748.22
2023-01-29T07:10:39.847Z,97748.44
2023-01-29T07:13:06.133Z,97748.28
2023-01-29T07:15:32.383Z,97759.50
2023-01-29T07:17:58.806Z,97758.66
2023-01-29T07:20:25.056Z,97752.69
2023-01-29T07:22:51.375Z,97753.34
2023-01-29T07:25:17.661Z,97750.88
2023-01-29T07:27:44.021Z,97747.59
2023-01-29T07:30:10.325Z,97754.16
2023-01-29T07:32:36.595Z,97747.72
2023-01-29T07:35:02.855Z,97751.16
2023-01-29T07:37:29.121Z,97745.41
2023-01-29T07:39:55.395Z,97747.06
2023-01-29T07:42:21.801Z,97743.31
2023-01-29T07:44:48.058Z,97739.13
2023-01-29T07:47:16.373Z,97733.22
2023-01-29T07:49:43.430Z,97728.75
2023-01-29T07:52:09.723Z,97737.78
2023-01-29T07:54:35.979Z,97734.97
2023-01-29T07:57:02.250Z,97734.97
2023-01-29T07:59:28.520Z,97743.91
2023-01-29T08:01:54.831Z,97743.25
2023-01-29T08:04:21.127Z,97731.88
2023-01-29T08:06:47.395Z,97731.88
2023-01-29T08:09:13.691Z,97723.13
2023-01-29T08:11:39.940Z,97736.78
2023-01-29T08:14:06.224Z,97734.81
2023-01-29T08:16:32.488Z,97740.38
2023-01-29T08:18:58.773Z,97735.28
2023-01-29T08:21:25.046Z,97732.16
2023-01-29T08:23:51.371Z,97736.63
2023-01-29T08:26:17.633Z,97738.19
2023-01-29T08:28:43.899Z,97742.38
2023-01-29T08:31:10.288Z,97743.25
2023-01-29T08:33:39.369Z,97740.09
2023-01-29T08:36:05.820Z,97742.19
2023-01-29T08:38:32.169Z,97752.41
2023-01-29T08:40:58.447Z,97751.53
2023-01-29T08:43:24.742Z,97747.78
2023-01-29T08:45:51.102Z,97751.13
2023-01-29T08:48:17.415Z,97742.50
2023-01-29T08:50:43.680Z,97752.34
2023-01-29T08:53:09.978Z,97761.56
2023-01-29T08:55:36.252Z,97764.88
2023-01-29T08:58:02.501Z,97764.88
2023-01-29T09:00:28.854Z,97766.34
2023-01-29T09:02:55.123Z,97764.50
2023-01-29T09:05:21.390Z,97759.22
2023-01-29T09:07:47.674Z,97766.38
2023-01-29T09:10:13.958Z,97761.47
2023-01-29T09:12:40.256Z,97766.28
2023-01-29T09:15:06.532Z,97768.75
2023-01-29T09:17:32.810Z,97770.84
2023-01-29T09:19:59.086Z,97771.50
2023-01-29T09:22:25.378Z,97779.91
2023-01-29T09:24:51.655Z,97767.38
2023-01-29T09:27:17.945Z,97777.78
2023-01-29T09:29:44.228Z,97780.72
2023-01-29T09:32:10.521Z,97776.44
2023-01-29T09:34:36.843Z,97777.91
2023-01-29T09:37:03.106Z,97780.19
2023-01-29T09:39:29.399Z,97786.06
2023-01-29T09:41:55.672Z,97793.00
2023-01-29T09:44:22.051Z,97785.06
2023-01-29T09:46:48.321Z,97793.53
2023-01-29T09:49:14.571Z,97794.53
2023-01-29T09:51:40.869Z,97790.59
2023-01-29T09:54:07.143Z,97800.34
2023-01-29T09:56:33.399Z,97806.91
2023-01-29T09:59:01.364Z,97807.50
2023-01-29T10:01:28.050Z,97816.31
2023-01-29T10:03:54.458Z,97813.19
2023-01-29T10:06:20.733Z,97822.25
2023-01-29T10:08:47.013Z,97825.22
2023-01-29T10:11:13.285Z,97831.94
2023-01-29T10:13:39.555Z,97835.41
2023-01-29T10:16:05.816Z,97834.94
2023-01-29T10:18:32.119Z,97841.56
2023-01-29T10:20:58.403Z,97838.44
2023-01-29T10:23:24.705Z,97836.81
2023-01-29T10:25:50.966Z,97838.78
2023-01-29T10:28:17.264Z,97837.63
2023-01-29T10:30:43.591Z,97833.34
2023-01-29T10:33:09.918Z,97841.75
2023-01-29T10:35:36.235Z,97839.03
2023-01-29T10:38:02.550Z,97834.88
2023-01-29T10:40:28.904Z,97831.47
2023-01-29T10:42:56.281Z,97827.81
2023-01-29T10:45:22.544Z,97835.41
2023-01-29T10:47:48.941Z,97836.88
2023-01-29T10:50:15.351Z,97833.47
2023-01-29T10:52:41.626Z,97829.00
2023-01-29T10:55:07.924Z,97833.09
2023-01-29T10:57:34.186Z,97829.19
2023-01-29T11:00:00.447Z,97832.69
2023-01-29T11:02:26.734Z,97830.06
2023-01-29T11:04:53.000Z,97827.31
2023-01-29T11:07:19.248Z,97825.72
2023-01-29T11:09:45.511Z,97824.50
2023-01-29T11:12:11.789Z,97820.44
2023-01-29T11:14:38.100Z,97822.25
2023-01-29T11:17:04.410Z,97822.41
2023-01-29T11:19:30.724Z,97821.41
2023-01-29T11:21:57.020Z,97824.25
2023-01-29T11:24:23.316Z,97825.41
2023-01-29T11:26:49.584Z,97823.78
2023-01-29T11:29:15.859Z,97826.06
2023-01-29T11:31:42.176Z,97820.13
2023-01-29T11:34:08.473Z,97821.41
2023-01-29T11:36:34.756Z,97820.44
2023-01-29T11:39:01.012Z,97813.38
2023-01-29T11:41:27.286Z,97811.66
2023-01-29T11:43:53.553Z,97804.56
2023-01-29T11:46:19.875Z,97805.38
2023-01-29T11:48:46.164Z,97800.44
2023-01-29T11:51:12.422Z,97798.97
2023-01-29T11:53:38.702Z,97794.69
2023-01-29T11:56:04.955Z,97798.34
2023-01-29T11:58:31.255Z,97803.28
2023-01-29T12:00:57.551Z,97796.00
2023-01-29T12:03:25.122Z,97791.06
2023-01-29T12:05:51.570Z,97790.69
2023-01-29T12:08:17.854Z,97794.69
2023-01-29T12:10:44.110Z,97787.88
2023-01-29T12:13:10.393Z,97781.59
2023-01-29T12:15:36.817Z,97785.66
2023-01-29T12:18:03.106Z,97780.03
2023-01-29T12:20:29.385Z,97788.78
2023-01-29T12:22:55.671Z,97782.47
2023-01-29T12:25:21.947Z,97778.84
2023-01-29T12:27:48.218Z,97776.59
2023-01-29T12:30:14.850Z,97773.44
2023-01-29T12:32:41.308Z,97770.63
2023-01-29T12:35:07.594Z,97762.56
2023-01-29T12:37:33.858Z,97766.84
2023-01-29T12:40:00.150Z,97764.69
2023-01-29T12:42:26.425Z,97752.94
2023-01-29T12:44:52.674Z,97754.47
2023-01-29T12:47:18.961Z,97748.81
2023-01-29T12:49:45.622Z,97749.81
2023-01-29T12:52:12.276Z,97753.28
2023-01-29T12:54:38.927Z,97749.09
2023-01-29T12:57:05.462Z,97742.47
2023-01-29T12:59:31.899Z,97743.28
2023-01-29T13:01:58.486Z,97736.81
2023-01-29T13:04:25.204Z,97749.41
2023-01-29T13:06:51.486Z,97732.97
2023-01-29T13:09:17.784Z,97740.53
2023-01-29T13:11:44.061Z,97740.25
2023-01-29T13:14:10.347Z,97737.50
2023-01-29T13:16:36.689Z,97733.22
2023-01-29T13:19:02.944Z,97737.09
2023-01-29T13:21:29.196Z,97747.19
2023-01-29T13:23:55.619Z,97737.09
2023-01-29T13:26:21.912Z,97736.91
2023-01-29T13:28:48.284Z,97736.69
2023-01-29T13:31:14.553Z,97742.78
2023-01-29T13:33:40.805Z,97746.88
2023-01-29T13:36:07.068Z,97747.34
2023-01-29T13:38:33.362Z,97744.34
2023-01-29T13:40:59.680Z,97747.81
2023-01-29T13:43:25.968Z,97745.81
2023-01-29T13:45:52.303Z,97737.50
2023-01-29T13:48:18.589Z,97744.72
2023-01-29T13:50:44.876Z,97748.19
2023-01-29T13:53:11.160Z,97735.44
2023-01-29T13:55:37.450Z,97740.25
2023-01-29T13:58:03.702Z,97739.72
2023-01-29T14:00:29.957Z,97742.91
2023-01-29T14:02:56.220Z,97740.06
2023-01-29T14:05:22.490Z,97745.34
2023-01-29T14:07:48.759Z,97741.72
2023-01-29T14:10:15.037Z,97741.47
2023-01-29T14:12:41.326Z,97745.38
2023-01-29T14:15:07.612Z,97747.13
2023-01-29T14:17:33.892Z,97745.75
2023-01-29T14:20:00.164Z,97747.66
2023-01-29T14:22:26.438Z,97749.28
2023-01-29T14:24:52.701Z,97752.75
2023-01-29T14:27:18.972Z,97748.41
2023-01-29T14:29:45.270Z,97753.94
2023-01-29T14:32:11.552Z,97752.13
2023-01-29T14:34:37.846Z,97751.94
2023-01-29T14:37:04.126Z,97751.13
2023-01-29T14:39:30.427Z,97752.03
2023-01-29T14:41:56.712Z,97755.69
2023-01-29T14:44:23.004Z,97753.59
2023-01-29T14:46:49.289Z,97762.16
2023-01-29T14:49:15.551Z,97754.88
2023-01-29T14:51:41.832Z,97756.78
2023-01-29T14:54:08.119Z,97754.50
2023-01-29T14:56:34.400Z,97755.50
2023-01-29T14:59:00.661Z,97756.97
2023-01-29T15:01:27.000Z,97749.69
2023-01-29T15:03:53.299Z,97750.97
2023-01-29T15:06:19.607Z,97754.91
2023-01-29T15:08:45.880Z,97753.78
2023-01-29T15:11:12.169Z,97759.81
2023-01-29T15:13:38.448Z,97750.03
2023-01-29T15:16:04.757Z,97756.16
2023-01-29T15:18:31.060Z,97751.47
2023-01-29T15:20:57.343Z,97752.28
2023-01-29T15:23:23.637Z,97749.03
2023-01-29T15:25:49.917Z,97746.56
2023-01-29T15:28:16.195Z,97738.47
2023-01-29T15:30:42.516Z,97737.06
2023-01-29T15:33:08.844Z,97744.56
2023-01-29T15:35:35.122Z,97742.72
2023-01-29T15:38:01.403Z,97738.91
2023-01-29T15:40:27.711Z,97734.44
2023-01-29T15:42:53.971Z,97734.25
2023-01-29T15:45:20.230Z,97735.53
2023-01-29T15:47:46.544Z,97736.34
2023-01-29T15:50:12.870Z,97737.72
2023-01-29T15:52:39.162Z,97744.28
2023-01-29T15:55:05.502Z,97736.25
2023-01-29T15:57:31.759Z,97746.00
2023-01-29T15:59:58.013Z,97740.72
2023-01-29T16:02:24.359Z,97741.34
2023-01-29T16:04:50.702Z,97748.28
2023-01-29T16:07:17.031Z,97749.56
2023-01-29T16:09:43.291Z,97753.88
2023-01-29T16:12:09.850Z,97737.81
2023-01-29T16:14:36.339Z,97752.28
2023-01-29T16:17:02.648Z,97752.28
2023-01-29T16:19:28.933Z,97752.28
2023-01-29T16:21:55.342Z,97748.66
2023-01-29T16:24:21.620Z,97752.50
2023-01-29T16:26:47.973Z,97747.75
2023-01-29T16:29:14.309Z,97747.13
2023-01-29T16:31:40.625Z,97748.47
2023-01-29T16:34:06.995Z,97747.19
2023-01-29T16:36:33.310Z,97739.44
2023-01-29T16:38:59.580Z,97746.06
2023-01-29T16:41:25.948Z,97745.59
2023-01-29T16:43:52.221Z,97751.06
2023-01-29T16:46:18.571Z,97755.72
2023-01-29T16:48:44.910Z,97751.59
2023-01-29T16:51:11.172Z,97751.94
2023-01-29T16:53:37.437Z,97758.41
2023-01-29T16:56:03.723Z,97764.03
2023-01-29T16:58:30.018Z,97760.41
2023-01-29T17:00:56.449Z,97762.41
2023-01-29T17:03:22.703Z,97759.47
2023-01-29T17:05:48.961Z,97767.38
2023-01-29T17:08:15.235Z,97764.91
2023-01-29T17:10:41.504Z,97760.47
2023-01-29T17:13:07.795Z,97762.28
2023-01-29T17:15:34.065Z,97760.81
2023-01-29T17:18:00.324Z,97762.63
2023-01-29T17:20:27.790Z,97763.81
2023-01-29T17:22:54.117Z,97761.50
2023-01-29T17:25:20.532Z,97766.97
2023-01-29T17:27:46.808Z,97771.59
2023-01-29T17:30:13.104Z,97776.25
2023-01-29T17:32:44.521Z,97784.16
2023-01-29T17:35:13.426Z,97786.19
2023-01-29T17:37:39.717Z,97777.63
2023-01-29T17:40:06.002Z,97782.09
2023-01-29T17:42:32.317Z,97784.72
2023-01-29T17:44:58.599Z,97782.25
2023-01-29T17:47:24.858Z,97783.91
2023-01-29T17:49:51.146Z,97794.00
2023-01-29T17:52:17.427Z,97793.16
2023-01-29T17:54:43.717Z,97791.69
2023-01-29T17:57:10.014Z,97788.41
2023-01-29T17:59:36.324Z,97790.88
2023-01-29T18:02:02.729Z,97787.94
2023-01-29T18:04:29.127Z,97790.25
2023-01-29T18:06:55.881Z,97799.53
2023-01-29T18:09:22.189Z,97795.91
2023-01-29T18:11:48.511Z,97798.91
2023-01-29T18:14:14.955Z,97797.44
2023-01-29T18:16:41.241Z,97798.41
2023-01-29T18:19:07.585Z,97798.59
2023-01-29T18:21:33.844Z,97799.25
2023-01-29T18:24:00.122Z,97797.94
2023-01-29T18:26:26.456Z,97790.84
2023-01-29T18:28:52.730Z,97788.41
2023-01-29T18:31:19.056Z,97787.91
2023-01-29T18:33:45.387Z,97786.94
2023-01-29T18:36:11.747Z,97792.03
2023-01-29T18:38:38.033Z,97787.59
2023-01-29T18:41:04.340Z,97791.38
2023-01-29T18:43:30.610Z,97790.72
2023-01-29T18:45:56.911Z,97795.19
2023-01-29T18:48:23.197Z,97785.63
2023-01-29T18:50:49.494Z,97779.53
2023-01-29T18:53:15.819Z,97778.22
2023-01-29T18:55:42.083Z,97777.72
2023-01-29T18:58:29.163Z,97782.34
2023-01-29T19:00:54.667Z,97773.13
2023-01-29T19:03:21.150Z,97782.53
2023-01-29T19:05:47.468Z,97780.06
2023-01-29T19:08:15.703Z,97772.66
2023-01-29T19:10:42.071Z,97780.09
2023-01-29T19:13:08.331Z,97781.75
2023-01-29T19:15:34.597Z,97787.03
2023-01-29T19:18:00.909Z,97789.50
2023-01-29T19:20:27.228Z,97792.19
2023-01-29T19:22:53.510Z,97787.41
2023-01-29T19:25:20.172Z,97788.06
2023-01-29T19:27:46.609Z,97783.78
2023-01-29T19:30:12.932Z,97788.69
2023-01-29T19:32:39.219Z,97790.88
2023-01-29T19:35:05.469Z,97795.81
2023-01-29T19:37:31.851Z,97798.28
2023-01-29T19:39:58.138Z,97801.59
2023-01-29T19:42:24.426Z,97805.06
2023-01-29T19:44:50.688Z,97808.00
2023-01-29T19:47:17.012Z,97818.72
2023-01-29T19:49:43.388Z,97818.69
2023-01-29T19:52:09.680Z,97823.63
2023-01-29T19:54:35.953Z,97826.41
2023-01-29T19:57:02.245Z,97824.09
2023-01-29T19:59:28.552Z,97829.66
2023-01-29T20:01:55.042Z,97828.03
2023-01-29T20:04:21.358Z,97835.91
2023-01-29T20:06:47.637Z,97835.72
2023-01-29T20:09:13.900Z,97832.78
2023-01-29T20:11:40.203Z,97839.34
2023-01-29T20:14:06.467Z,97836.88
2023-01-29T20:16:32.787Z,97841.81
2023-01-29T20:19:13.392Z,97844.13
2023-01-29T20:21:40.992Z,97837.72
2023-01-29T20:24:07.971Z,97834.44
2023-01-29T20:26:34.332Z,97831.50
2023-01-29T20:29:00.635Z,97834.78
2023-01-29T20:31:26.954Z,97840.72
2023-01-29T20:33:53.260Z,97840.88
2023-01-29T20:36:19.605Z,97847.28
2023-01-29T20:38:45.868Z,97847.63
2023-01-29T20:41:12.151Z,97859.97
2023-01-29T20:43:38.435Z,97858.66
2023-01-29T20:46:04.807Z,97863.25
2023-01-29T20:48:31.127Z,97864.56
2023-01-29T20:50:57.441Z,97860.44
2023-01-29T20:53:23.743Z,97859.94
2023-01-29T20:55:50.102Z,97861.72
2023-01-29T20:58:16.636Z,97861.88
2023-01-29T21:00:42.949Z,97875.03
2023-01-29T21:03:09.239Z,97877.47
2023-01-29T21:05:35.535Z,97871.72
2023-01-29T21:08:01.822Z,97872.88
2023-01-29T21:10:28.100Z,97879.28
2023-01-29T21:12:54.342Z,97876.13
2023-01-29T21:15:20.714Z,97877.91
2023-01-29T21:17:46.969Z,97874.34
2023-01-29T21:20:13.282Z,97872.88
2023-01-29T21:22:39.567Z,97871.72
2023-01-29T21:25:05.836Z,97867.63
2023-01-29T21:27:32.120Z,97861.84
2023-01-29T21:29:58.381Z,97868.25
2023-01-29T21:32:24.666Z,97864.78
2023-01-29T21:34:52.575Z,97872.06
2023-01-29T21:37:18.999Z,97874.50
2023-01-29T21:39:45.265Z,97874.34
2023-01-29T21:42:11.591Z,97869.75
2023-01-29T21:44:37.884Z,97871.53
2023-01-29T21:47:04.165Z,97867.25
2023-01-29T21:49:30.475Z,97863.13
2023-01-29T21:51:56.890Z,97865.41
2023-01-29T21:54:23.188Z,97857.38
2023-01-29T21:56:49.459Z,97855.88
2023-01-29T21:59:15.744Z,97863.56
2023-01-29T22:01:42.024Z,97860.75
2023-01-29T22:04:08.337Z,97846.78
2023-01-29T22:06:34.703Z,97852.19
2023-01-29T22:09:00.998Z,97853.69
2023-01-29T22:11:27.418Z,97852.38
2023-01-29T22:13:53.697Z,97857.44
2023-01-29T22:16:19.958Z,97849.19
2023-01-29T22:18:46.228Z,97849.16
2023-01-29T22:21:12.493Z,97845.97
2023-01-29T22:23:38.791Z,97838.41
2023-01-29T22:26:05.089Z,97842.88
2023-01-29T22:28:31.363Z,97849.78
2023-01-29T22:30:57.645Z,97851.59
2023-01-29T22:33:23.930Z,97847.97
2023-01-29T22:35:50.186Z,97848.13
2023-01-29T22:38:16.459Z,97839.41
2023-01-29T22:40:42.715Z,97833.13
2023-01-29T22:43:08.992Z,97834.13
2023-01-29T22:45:35.292Z,97827.88
2023-01-29T22:48:01.600Z,97826.91
2023-01-29T22:50:27.885Z,97818.13
2023-01-29T22:52:54.357Z,97819.25
2023-01-29T22:55:20.649Z,97811.53
2023-01-29T22:57:46.926Z,97806.59
2023-01-29T23:00:13.201Z,97805.13
2023-01-29T23:02:39.471Z,97796.53
2023-01-29T23:05:05.731Z,97794.38
2023-01-29T23:07:31.997Z,97793.69
2023-01-29T23:09:58.363Z,97781.84
2023-01-29T23:12:24.623Z,97787.31
2023-01-29T23:14:50.901Z,97779.13
2023-01-29T23:17:17.162Z,97782.56
2023-01-29T23:19:43.536Z,97784.22
2023-01-29T23:22:09.787Z,97779.78
2023-01-29T23:24:36.079Z,97775.16
2023-01-29T23:27:02.355Z,97779.59
2023-01-29T23:29:28.613Z,97770.25
2023-01-29T23:31:54.880Z,97774.53
2023-01-29T23:34:21.143Z,97765.50
2023-01-29T23:36:47.405Z,97762.91
2023-01-29T23:39:13.665Z,97764.06
2023-01-29T23:41:39.938Z,97771.94
2023-01-29T23:44:06.217Z,97758.50
2023-01-29T23:46:32.522Z,97761.13
2023-01-29T23:48:58.823Z,97748.31
2023-01-29T23:51:25.089Z,97749.81
2023-01-29T23:53:51.341Z,97752.28
2023-01-29T23:56:17.598Z,97749.34
2023-01-29T23:58:43.853Z,97747.22
